sensor_id;sensor_type;location;lat;lon;timestamp;P1;durP1;ratioP1;P2;durP2;ratioP2
9888;SDS011;4983;42.112;24.738;2023-04-03T00:01:41;3.00;;;1.47;;
9888;SDS011;4983;42.112;24.738;2023-04-03T00:04:11;2.47;;;1.60;;
9888;SDS011;4983;42.112;24.738;2023-04-03T00:06:39;1.50;;;1.40;;
9888;SDS011;4983;42.112;24.738;2023-04-03T00:09:07;3.97;;;1.80;;
9888;SDS011;4983;42.112;24.738;2023-04-03T00:11:35;1.97;;;1.50;;
9888;SDS011;4983;42.112;24.738;2023-04-03T00:14:02;2.53;;;1.40;;
9888;SDS011;4983;42.112;24.738;2023-04-03T00:16:29;2.50;;;1.40;;
9888;SDS011;4983;42.112;24.738;2023-04-03T00:18:56;1.43;;;1.23;;
9888;SDS011;4983;42.112;24.738;2023-04-03T00:21:22;2.53;;;1.40;;
9888;SDS011;4983;42.112;24.738;2023-04-03T00:23:49;1.77;;;1.30;;
9888;SDS011;4983;42.112;24.738;2023-04-03T00:26:16;20.43;;;2.20;;
9888;SDS011;4983;42.112;24.738;2023-04-03T00:28:44;11.10;;;1.80;;
9888;SDS011;4983;42.112;24.738;2023-04-03T00:31:13;4.20;;;1.33;;
9888;SDS011;4983;42.112;24.738;2023-04-03T00:33:41;1.97;;;1.50;;
9888;SDS011;4983;42.112;24.738;2023-04-03T00:36:08;2.23;;;1.30;;
9888;SDS011;4983;42.112;24.738;2023-04-03T00:38:35;1.50;;;1.30;;
9888;SDS011;4983;42.112;24.738;2023-04-03T00:41:02;3.67;;;1.40;;
9888;SDS011;4983;42.112;24.738;2023-04-03T00:43:29;1.73;;;1.00;;
9888;SDS011;4983;42.112;24.738;2023-04-03T00:45:58;2.17;;;1.30;;
9888;SDS011;4983;42.112;24.738;2023-04-03T00:48:26;3.37;;;1.47;;
9888;SDS011;4983;42.112;24.738;2023-04-03T00:50:54;4.10;;;1.80;;
9888;SDS011;4983;42.112;24.738;2023-04-03T00:53:21;5.70;;;1.63;;
9888;SDS011;4983;42.112;24.738;2023-04-03T00:55:49;4.50;;;1.60;;
9888;SDS011;4983;42.112;24.738;2023-04-03T00:58:17;7.90;;;1.70;;
9888;SDS011;4983;42.112;24.738;2023-04-03T01:00:46;3.10;;;1.60;;
9888;SDS011;4983;42.112;24.738;2023-04-03T01:03:15;5.57;;;1.60;;
9888;SDS011;4983;42.112;24.738;2023-04-03T01:05:42;9.40;;;1.90;;
9888;SDS011;4983;42.112;24.738;2023-04-03T01:08:09;7.33;;;1.87;;
9888;SDS011;4983;42.112;24.738;2023-04-03T01:10:36;5.23;;;2.10;;
9888;SDS011;4983;42.112;24.738;2023-04-03T01:13:08;8.17;;;2.40;;
9888;SDS011;4983;42.112;24.738;2023-04-03T01:15:43;7.67;;;1.93;;
9888;SDS011;4983;42.112;24.738;2023-04-03T01:18:10;9.60;;;2.33;;
9888;SDS011;4983;42.112;24.738;2023-04-03T01:23:32;2.70;;;2.23;;
9888;SDS011;4983;42.112;24.738;2023-04-03T01:26:01;6.30;;;2.60;;
9888;SDS011;4983;42.112;24.738;2023-04-03T01:28:29;14.00;;;3.30;;
9888;SDS011;4983;42.112;24.738;2023-04-03T01:30:58;4.13;;;2.30;;
9888;SDS011;4983;42.112;24.738;2023-04-03T01:33:28;9.10;;;2.50;;
9888;SDS011;4983;42.112;24.738;2023-04-03T01:35:55;5.10;;;2.23;;
9888;SDS011;4983;42.112;24.738;2023-04-03T01:38:22;2.80;;;2.40;;
9888;SDS011;4983;42.112;24.738;2023-04-03T01:40:49;3.60;;;2.30;;
9888;SDS011;4983;42.112;24.738;2023-04-03T01:43:16;2.47;;;1.70;;
9888;SDS011;4983;42.112;24.738;2023-04-03T01:45:43;2.07;;;1.30;;
9888;SDS011;4983;42.112;24.738;2023-04-03T01:48:11;1.87;;;1.60;;
9888;SDS011;4983;42.112;24.738;2023-04-03T01:50:40;2.97;;;1.40;;
9888;SDS011;4983;42.112;24.738;2023-04-03T01:53:08;1.30;;;1.10;;
9888;SDS011;4983;42.112;24.738;2023-04-03T01:55:35;3.23;;;1.10;;
9888;SDS011;4983;42.112;24.738;2023-04-03T01:58:04;0.97;;;0.93;;
9888;SDS011;4983;42.112;24.738;2023-04-03T02:00:31;1.10;;;1.00;;
9888;SDS011;4983;42.112;24.738;2023-04-03T02:03:01;1.87;;;1.10;;
9888;SDS011;4983;42.112;24.738;2023-04-03T02:05:28;0.93;;;0.90;;
9888;SDS011;4983;42.112;24.738;2023-04-03T02:07:56;1.10;;;1.00;;
9888;SDS011;4983;42.112;24.738;2023-04-03T02:10:23;2.40;;;0.90;;
9888;SDS011;4983;42.112;24.738;2023-04-03T02:12:50;2.17;;;0.97;;
9888;SDS011;4983;42.112;24.738;2023-04-03T02:15:16;1.67;;;0.70;;
9888;SDS011;4983;42.112;24.738;2023-04-03T02:17:44;1.60;;;1.10;;
9888;SDS011;4983;42.112;24.738;2023-04-03T02:20:11;0.90;;;0.90;;
9888;SDS011;4983;42.112;24.738;2023-04-03T02:22:38;1.23;;;0.90;;
9888;SDS011;4983;42.112;24.738;2023-04-03T02:25:07;1.07;;;0.97;;
9888;SDS011;4983;42.112;24.738;2023-04-03T02:27:34;2.90;;;1.10;;
9888;SDS011;4983;42.112;24.738;2023-04-03T02:30:01;1.27;;;1.13;;
9888;SDS011;4983;42.112;24.738;2023-04-03T02:32:28;1.03;;;0.93;;
9888;SDS011;4983;42.112;24.738;2023-04-03T02:34:55;1.70;;;1.17;;
9888;SDS011;4983;42.112;24.738;2023-04-03T02:37:22;1.40;;;1.20;;
9888;SDS011;4983;42.112;24.738;2023-04-03T02:39:49;1.13;;;1.03;;
9888;SDS011;4983;42.112;24.738;2023-04-03T02:42:17;1.30;;;1.10;;
9888;SDS011;4983;42.112;24.738;2023-04-03T02:44:44;2.40;;;1.10;;
9888;SDS011;4983;42.112;24.738;2023-04-03T02:47:11;2.30;;;1.10;;
9888;SDS011;4983;42.112;24.738;2023-04-03T02:49:38;0.97;;;0.90;;
9888;SDS011;4983;42.112;24.738;2023-04-03T02:52:05;1.00;;;0.90;;
9888;SDS011;4983;42.112;24.738;2023-04-03T02:54:31;1.33;;;1.20;;
9888;SDS011;4983;42.112;24.738;2023-04-03T02:56:58;1.13;;;1.00;;
9888;SDS011;4983;42.112;24.738;2023-04-03T02:59:26;1.27;;;0.90;;
9888;SDS011;4983;42.112;24.738;2023-04-03T03:01:53;2.20;;;1.27;;
9888;SDS011;4983;42.112;24.738;2023-04-03T03:04:21;1.80;;;1.53;;
9888;SDS011;4983;42.112;24.738;2023-04-03T03:06:48;1.40;;;1.20;;
9888;SDS011;4983;42.112;24.738;2023-04-03T03:09:15;1.67;;;1.50;;
9888;SDS011;4983;42.112;24.738;2023-04-03T03:11:42;1.30;;;1.20;;
9888;SDS011;4983;42.112;24.738;2023-04-03T03:14:09;1.40;;;1.20;;
9888;SDS011;4983;42.112;24.738;2023-04-03T03:16:37;1.77;;;1.30;;
9888;SDS011;4983;42.112;24.738;2023-04-03T03:19:04;1.50;;;1.40;;
9888;SDS011;4983;42.112;24.738;2023-04-03T03:21:32;27.47;;;16.37;;
9888;SDS011;4983;42.112;24.738;2023-04-03T03:23:58;22.90;;;13.90;;
9888;SDS011;4983;42.112;24.738;2023-04-03T03:26:25;9.07;;;6.13;;
9888;SDS011;4983;42.112;24.738;2023-04-03T03:28:52;8.13;;;4.63;;
9888;SDS011;4983;42.112;24.738;2023-04-03T03:31:19;6.40;;;3.60;;
9888;SDS011;4983;42.112;24.738;2023-04-03T03:33:47;6.07;;;3.30;;
9888;SDS011;4983;42.112;24.738;2023-04-03T03:36:14;3.37;;;2.83;;
9888;SDS011;4983;42.112;24.738;2023-04-03T03:38:41;6.30;;;3.93;;
9888;SDS011;4983;42.112;24.738;2023-04-03T03:41:08;2.27;;;2.03;;
9888;SDS011;4983;42.112;24.738;2023-04-03T03:43:35;2.70;;;1.60;;
9888;SDS011;4983;42.112;24.738;2023-04-03T03:46:01;2.10;;;1.70;;
9888;SDS011;4983;42.112;24.738;2023-04-03T03:48:28;1.70;;;1.60;;
9888;SDS011;4983;42.112;24.738;2023-04-03T03:50:57;1.90;;;1.40;;
9888;SDS011;4983;42.112;24.738;2023-04-03T03:53:23;2.13;;;1.57;;
9888;SDS011;4983;42.112;24.738;2023-04-03T03:55:50;2.00;;;1.23;;
9888;SDS011;4983;42.112;24.738;2023-04-03T03:58:17;2.30;;;1.63;;
9888;SDS011;4983;42.112;24.738;2023-04-03T04:00:44;2.43;;;1.70;;
9888;SDS011;4983;42.112;24.738;2023-04-03T04:03:11;2.20;;;2.00;;
9888;SDS011;4983;42.112;24.738;2023-04-03T04:05:39;2.67;;;1.90;;
9888;SDS011;4983;42.112;24.738;2023-04-03T04:08:07;1.43;;;1.33;;
9888;SDS011;4983;42.112;24.738;2023-04-03T04:10:34;2.83;;;2.00;;
9888;SDS011;4983;42.112;24.738;2023-04-03T04:13:02;2.40;;;1.97;;
9888;SDS011;4983;42.112;24.738;2023-04-03T04:15:30;2.87;;;2.30;;
9888;SDS011;4983;42.112;24.738;2023-04-03T04:17:58;1.80;;;1.60;;
9888;SDS011;4983;42.112;24.738;2023-04-03T04:20:25;2.00;;;1.70;;
9888;SDS011;4983;42.112;24.738;2023-04-03T04:22:52;2.37;;;2.07;;
9888;SDS011;4983;42.112;24.738;2023-04-03T04:25:20;2.50;;;2.30;;
9888;SDS011;4983;42.112;24.738;2023-04-03T04:27:47;2.27;;;1.90;;
9888;SDS011;4983;42.112;24.738;2023-04-03T04:30:14;2.97;;;2.70;;
9888;SDS011;4983;42.112;24.738;2023-04-03T04:32:42;3.83;;;3.43;;
9888;SDS011;4983;42.112;24.738;2023-04-03T04:35:09;2.90;;;2.67;;
9888;SDS011;4983;42.112;24.738;2023-04-03T04:37:36;3.57;;;2.73;;
9888;SDS011;4983;42.112;24.738;2023-04-03T04:40:03;2.70;;;2.10;;
9888;SDS011;4983;42.112;24.738;2023-04-03T04:42:33;3.47;;;2.27;;
9888;SDS011;4983;42.112;24.738;2023-04-03T04:45:00;2.90;;;2.00;;
9888;SDS011;4983;42.112;24.738;2023-04-03T04:47:27;2.13;;;1.93;;
9888;SDS011;4983;42.112;24.738;2023-04-03T04:49:54;4.23;;;2.03;;
9888;SDS011;4983;42.112;24.738;2023-04-03T04:52:21;3.80;;;2.00;;
9888;SDS011;4983;42.112;24.738;2023-04-03T04:54:48;3.83;;;2.60;;
9888;SDS011;4983;42.112;24.738;2023-04-03T04:57:15;2.37;;;2.00;;
9888;SDS011;4983;42.112;24.738;2023-04-03T04:59:44;2.77;;;2.20;;
9888;SDS011;4983;42.112;24.738;2023-04-03T05:02:11;3.30;;;2.13;;
9888;SDS011;4983;42.112;24.738;2023-04-03T05:04:37;3.80;;;3.13;;
9888;SDS011;4983;42.112;24.738;2023-04-03T05:07:04;3.73;;;3.00;;
9888;SDS011;4983;42.112;24.738;2023-04-03T05:09:31;3.43;;;2.67;;
9888;SDS011;4983;42.112;24.738;2023-04-03T05:11:58;3.97;;;2.80;;
9888;SDS011;4983;42.112;24.738;2023-04-03T05:14:24;3.33;;;2.77;;
9888;SDS011;4983;42.112;24.738;2023-04-03T05:16:53;3.70;;;2.80;;
9888;SDS011;4983;42.112;24.738;2023-04-03T05:19:19;3.53;;;2.80;;
9888;SDS011;4983;42.112;24.738;2023-04-03T05:21:46;2.63;;;2.13;;
9888;SDS011;4983;42.112;24.738;2023-04-03T05:24:14;2.57;;;2.10;;
9888;SDS011;4983;42.112;24.738;2023-04-03T05:26:41;2.53;;;2.07;;
9888;SDS011;4983;42.112;24.738;2023-04-03T05:29:08;4.03;;;2.13;;
9888;SDS011;4983;42.112;24.738;2023-04-03T05:31:36;2.30;;;2.07;;
9888;SDS011;4983;42.112;24.738;2023-04-03T05:34:04;3.17;;;2.20;;
9888;SDS011;4983;42.112;24.738;2023-04-03T05:36:31;3.43;;;2.00;;
9888;SDS011;4983;42.112;24.738;2023-04-03T05:38:58;2.47;;;2.03;;
9888;SDS011;4983;42.112;24.738;2023-04-03T05:41:26;3.63;;;2.77;;
9888;SDS011;4983;42.112;24.738;2023-04-03T05:43:53;4.07;;;2.47;;
9888;SDS011;4983;42.112;24.738;2023-04-03T05:46:20;5.40;;;2.30;;
9888;SDS011;4983;42.112;24.738;2023-04-03T05:48:47;3.43;;;2.33;;
9888;SDS011;4983;42.112;24.738;2023-04-03T05:51:16;3.07;;;2.20;;
9888;SDS011;4983;42.112;24.738;2023-04-03T05:53:44;4.77;;;2.50;;
9888;SDS011;4983;42.112;24.738;2023-04-03T05:56:11;3.03;;;2.30;;
9888;SDS011;4983;42.112;24.738;2023-04-03T05:58:38;3.40;;;2.27;;
9888;SDS011;4983;42.112;24.738;2023-04-03T06:01:05;3.97;;;2.70;;
9888;SDS011;4983;42.112;24.738;2023-04-03T06:03:32;2.73;;;2.23;;
9888;SDS011;4983;42.112;24.738;2023-04-03T06:06:00;3.77;;;2.70;;
9888;SDS011;4983;42.112;24.738;2023-04-03T06:08:30;4.50;;;2.80;;
9888;SDS011;4983;42.112;24.738;2023-04-03T06:10:57;3.87;;;2.50;;
9888;SDS011;4983;42.112;24.738;2023-04-03T06:13:23;4.33;;;2.60;;
9888;SDS011;4983;42.112;24.738;2023-04-03T06:15:50;3.57;;;2.20;;
9888;SDS011;4983;42.112;24.738;2023-04-03T06:18:17;3.23;;;2.43;;
9888;SDS011;4983;42.112;24.738;2023-04-03T06:20:45;3.87;;;2.73;;
9888;SDS011;4983;42.112;24.738;2023-04-03T06:23:11;3.30;;;2.90;;
9888;SDS011;4983;42.112;24.738;2023-04-03T06:25:41;3.03;;;2.70;;
9888;SDS011;4983;42.112;24.738;2023-04-03T06:28:08;3.23;;;2.60;;
9888;SDS011;4983;42.112;24.738;2023-04-03T06:30:35;3.90;;;2.70;;
9888;SDS011;4983;42.112;24.738;2023-04-03T06:33:03;4.63;;;2.93;;
9888;SDS011;4983;42.112;24.738;2023-04-03T06:35:30;4.43;;;2.80;;
9888;SDS011;4983;42.112;24.738;2023-04-03T06:38:00;4.33;;;2.90;;
9888;SDS011;4983;42.112;24.738;2023-04-03T06:40:30;3.93;;;2.77;;
9888;SDS011;4983;42.112;24.738;2023-04-03T06:43:00;3.27;;;2.40;;
9888;SDS011;4983;42.112;24.738;2023-04-03T06:45:27;2.87;;;2.40;;
9888;SDS011;4983;42.112;24.738;2023-04-03T06:47:54;2.73;;;2.10;;
9888;SDS011;4983;42.112;24.738;2023-04-03T06:50:21;2.20;;;1.80;;
9888;SDS011;4983;42.112;24.738;2023-04-03T06:52:48;2.80;;;1.93;;
9888;SDS011;4983;42.112;24.738;2023-04-03T06:55:15;3.30;;;2.20;;
9888;SDS011;4983;42.112;24.738;2023-04-03T06:57:42;3.10;;;2.00;;
9888;SDS011;4983;42.112;24.738;2023-04-03T07:00:11;2.30;;;1.90;;
9888;SDS011;4983;42.112;24.738;2023-04-03T07:02:39;2.27;;;1.80;;
9888;SDS011;4983;42.112;24.738;2023-04-03T07:05:06;1.93;;;1.73;;
9888;SDS011;4983;42.112;24.738;2023-04-03T07:07:34;5.97;;;2.83;;
9888;SDS011;4983;42.112;24.738;2023-04-03T07:10:03;2.67;;;1.97;;
9888;SDS011;4983;42.112;24.738;2023-04-03T07:12:30;2.20;;;1.80;;
9888;SDS011;4983;42.112;24.738;2023-04-03T07:14:57;2.80;;;2.07;;
9888;SDS011;4983;42.112;24.738;2023-04-03T07:17:25;3.93;;;1.87;;
9888;SDS011;4983;42.112;24.738;2023-04-03T07:19:52;2.93;;;1.97;;
9888;SDS011;4983;42.112;24.738;2023-04-03T07:22:19;3.13;;;2.30;;
9888;SDS011;4983;42.112;24.738;2023-04-03T07:24:46;2.77;;;1.93;;
9888;SDS011;4983;42.112;24.738;2023-04-03T07:27:13;3.17;;;2.10;;
9888;SDS011;4983;42.112;24.738;2023-04-03T07:29:40;2.40;;;1.97;;
9888;SDS011;4983;42.112;24.738;2023-04-03T07:32:08;2.43;;;2.10;;
9888;SDS011;4983;42.112;24.738;2023-04-03T07:34:36;2.17;;;1.70;;
9888;SDS011;4983;42.112;24.738;2023-04-03T07:37:03;2.83;;;1.70;;
9888;SDS011;4983;42.112;24.738;2023-04-03T07:39:32;3.57;;;1.70;;
9888;SDS011;4983;42.112;24.738;2023-04-03T07:41:59;1.80;;;1.60;;
9888;SDS011;4983;42.112;24.738;2023-04-03T07:44:26;2.13;;;1.63;;
9888;SDS011;4983;42.112;24.738;2023-04-03T07:46:53;3.07;;;2.03;;
9888;SDS011;4983;42.112;24.738;2023-04-03T07:49:21;3.60;;;2.20;;
9888;SDS011;4983;42.112;24.738;2023-04-03T07:51:50;2.57;;;2.00;;
9888;SDS011;4983;42.112;24.738;2023-04-03T07:54:18;2.33;;;1.60;;
9888;SDS011;4983;42.112;24.738;2023-04-03T07:56:45;3.80;;;1.90;;
9888;SDS011;4983;42.112;24.738;2023-04-03T07:59:12;2.20;;;1.90;;
9888;SDS011;4983;42.112;24.738;2023-04-03T08:01:38;3.83;;;1.90;;
9888;SDS011;4983;42.112;24.738;2023-04-03T08:04:05;1.67;;;1.57;;
9888;SDS011;4983;42.112;24.738;2023-04-03T08:06:32;2.73;;;1.70;;
9888;SDS011;4983;42.112;24.738;2023-04-03T08:09:03;3.00;;;1.70;;
9888;SDS011;4983;42.112;24.738;2023-04-03T08:11:30;2.57;;;1.87;;
9888;SDS011;4983;42.112;24.738;2023-04-03T08:13:57;2.00;;;1.63;;
9888;SDS011;4983;42.112;24.738;2023-04-03T08:16:24;2.50;;;1.90;;
9888;SDS011;4983;42.112;24.738;2023-04-03T08:18:52;3.17;;;2.03;;
9888;SDS011;4983;42.112;24.738;2023-04-03T08:21:21;2.07;;;1.50;;
9888;SDS011;4983;42.112;24.738;2023-04-03T08:23:49;2.53;;;1.70;;
9888;SDS011;4983;42.112;24.738;2023-04-03T08:26:18;7.47;;;2.40;;
9888;SDS011;4983;42.112;24.738;2023-04-03T08:28:46;2.53;;;1.80;;
9888;SDS011;4983;42.112;24.738;2023-04-03T08:31:14;3.40;;;2.10;;
9888;SDS011;4983;42.112;24.738;2023-04-03T08:33:41;4.00;;;2.10;;
9888;SDS011;4983;42.112;24.738;2023-04-03T08:36:15;2.90;;;2.43;;
9888;SDS011;4983;42.112;24.738;2023-04-03T08:38:42;3.23;;;2.40;;
9888;SDS011;4983;42.112;24.738;2023-04-03T08:41:11;2.57;;;2.30;;
9888;SDS011;4983;42.112;24.738;2023-04-03T08:43:44;4.10;;;1.80;;
9888;SDS011;4983;42.112;24.738;2023-04-03T08:46:15;2.17;;;1.80;;
9888;SDS011;4983;42.112;24.738;2023-04-03T08:48:43;1.73;;;1.60;;
9888;SDS011;4983;42.112;24.738;2023-04-03T08:51:11;2.03;;;1.83;;
9888;SDS011;4983;42.112;24.738;2023-04-03T08:53:41;3.33;;;1.90;;
9888;SDS011;4983;42.112;24.738;2023-04-03T08:56:10;1.93;;;1.70;;
9888;SDS011;4983;42.112;24.738;2023-04-03T08:58:41;2.27;;;1.80;;
9888;SDS011;4983;42.112;24.738;2023-04-03T09:01:17;2.60;;;1.80;;
9888;SDS011;4983;42.112;24.738;2023-04-03T09:03:44;3.67;;;2.40;;
9888;SDS011;4983;42.112;24.738;2023-04-03T09:06:13;2.57;;;2.10;;
9888;SDS011;4983;42.112;24.738;2023-04-03T09:08:42;5.07;;;1.90;;
9888;SDS011;4983;42.112;24.738;2023-04-03T09:11:12;2.20;;;1.80;;
9888;SDS011;4983;42.112;24.738;2023-04-03T09:13:43;2.20;;;1.83;;
9888;SDS011;4983;42.112;24.738;2023-04-03T09:16:16;5.07;;;2.20;;
9888;SDS011;4983;42.112;24.738;2023-04-03T09:18:48;2.53;;;1.70;;
9888;SDS011;4983;42.112;24.738;2023-04-03T09:21:19;2.93;;;1.90;;
9888;SDS011;4983;42.112;24.738;2023-04-03T09:23:47;3.97;;;3.10;;
9888;SDS011;4983;42.112;24.738;2023-04-03T09:26:17;2.93;;;1.93;;
9888;SDS011;4983;42.112;24.738;2023-04-03T09:28:46;3.70;;;1.80;;
9888;SDS011;4983;42.112;24.738;2023-04-03T09:31:16;1.77;;;1.50;;
9888;SDS011;4983;42.112;24.738;2023-04-03T09:33:45;2.43;;;1.93;;
9888;SDS011;4983;42.112;24.738;2023-04-03T09:36:13;2.63;;;1.37;;
9888;SDS011;4983;42.112;24.738;2023-04-03T09:38:40;1.63;;;1.53;;
9888;SDS011;4983;42.112;24.738;2023-04-03T09:41:13;1.90;;;1.53;;
9888;SDS011;4983;42.112;24.738;2023-04-03T09:43:41;1.60;;;1.50;;
9888;SDS011;4983;42.112;24.738;2023-04-03T09:46:24;3.43;;;1.50;;
9888;SDS011;4983;42.112;24.738;2023-04-03T09:48:52;2.33;;;1.75;;
9888;SDS011;4983;42.112;24.738;2023-04-03T09:51:24;1.37;;;1.27;;
9888;SDS011;4983;42.112;24.738;2023-04-03T09:53:54;1.80;;;1.50;;
9888;SDS011;4983;42.112;24.738;2023-04-03T09:56:23;2.90;;;1.60;;
9888;SDS011;4983;42.112;24.738;2023-04-03T09:58:52;2.43;;;1.40;;
9888;SDS011;4983;42.112;24.738;2023-04-03T10:01:25;1.70;;;1.47;;
9888;SDS011;4983;42.112;24.738;2023-04-03T10:04:08;1.53;;;1.43;;
9888;SDS011;4983;42.112;24.738;2023-04-03T10:06:37;1.30;;;1.20;;
9888;SDS011;4983;42.112;24.738;2023-04-03T10:09:10;1.93;;;1.40;;
9888;SDS011;4983;42.112;24.738;2023-04-03T10:11:46;2.00;;;1.10;;
9888;SDS011;4983;42.112;24.738;2023-04-03T10:14:24;1.53;;;1.10;;
9888;SDS011;4983;42.112;24.738;2023-04-03T10:16:53;1.33;;;1.23;;
9888;SDS011;4983;42.112;24.738;2023-04-03T10:19:31;2.00;;;1.30;;
9888;SDS011;4983;42.112;24.738;2023-04-03T10:21:59;1.83;;;1.23;;
9888;SDS011;4983;42.112;24.738;2023-04-03T10:24:28;1.97;;;1.77;;
9888;SDS011;4983;42.112;24.738;2023-04-03T10:26:58;1.80;;;1.43;;
9888;SDS011;4983;42.112;24.738;2023-04-03T10:29:31;2.00;;;1.60;;
9888;SDS011;4983;42.112;24.738;2023-04-03T10:32:06;1.73;;;1.47;;
9888;SDS011;4983;42.112;24.738;2023-04-03T10:34:38;2.60;;;1.50;;
9888;SDS011;4983;42.112;24.738;2023-04-03T10:37:09;2.10;;;1.43;;
9888;SDS011;4983;42.112;24.738;2023-04-03T10:39:39;1.77;;;1.50;;
9888;SDS011;4983;42.112;24.738;2023-04-03T10:42:12;1.43;;;1.20;;
9888;SDS011;4983;42.112;24.738;2023-04-03T10:44:42;1.43;;;1.33;;
9888;SDS011;4983;42.112;24.738;2023-04-03T10:47:14;1.40;;;1.30;;
9888;SDS011;4983;42.112;24.738;2023-04-03T10:49:44;2.53;;;1.60;;
9888;SDS011;4983;42.112;24.738;2023-04-03T10:52:17;1.83;;;1.70;;
9888;SDS011;4983;42.112;24.738;2023-04-03T10:54:48;1.83;;;1.50;;
9888;SDS011;4983;42.112;24.738;2023-04-03T10:57:16;1.90;;;1.70;;
9888;SDS011;4983;42.112;24.738;2023-04-03T10:59:45;2.30;;;2.00;;
9888;SDS011;4983;42.112;24.738;2023-04-03T11:02:19;1.70;;;1.40;;
9888;SDS011;4983;42.112;24.738;2023-04-03T11:04:50;1.93;;;1.40;;
9888;SDS011;4983;42.112;24.738;2023-04-03T11:07:19;2.00;;;1.40;;
9888;SDS011;4983;42.112;24.738;2023-04-03T11:09:48;1.70;;;1.40;;
9888;SDS011;4983;42.112;24.738;2023-04-03T11:12:17;2.70;;;1.80;;
9888;SDS011;4983;42.112;24.738;2023-04-03T11:14:45;1.37;;;1.27;;
9888;SDS011;4983;42.112;24.738;2023-04-03T11:17:21;1.87;;;1.50;;
9888;SDS011;4983;42.112;24.738;2023-04-03T11:19:52;1.93;;;1.50;;
9888;SDS011;4983;42.112;24.738;2023-04-03T11:22:23;1.70;;;1.60;;
9888;SDS011;4983;42.112;24.738;2023-04-03T11:24:55;2.10;;;1.67;;
9888;SDS011;4983;42.112;24.738;2023-04-03T11:27:24;2.00;;;1.70;;
9888;SDS011;4983;42.112;24.738;2023-04-03T11:29:52;1.90;;;1.50;;
9888;SDS011;4983;42.112;24.738;2023-04-03T11:32:29;1.40;;;1.30;;
9888;SDS011;4983;42.112;24.738;2023-04-03T11:35:01;1.50;;;1.30;;
9888;SDS011;4983;42.112;24.738;2023-04-03T11:37:30;1.50;;;1.40;;
9888;SDS011;4983;42.112;24.738;2023-04-03T11:39:59;1.40;;;1.10;;
9888;SDS011;4983;42.112;24.738;2023-04-03T11:42:29;2.27;;;1.67;;
9888;SDS011;4983;42.112;24.738;2023-04-03T11:47:48;1.87;;;1.60;;
9888;SDS011;4983;42.112;24.738;2023-04-03T11:50:32;1.50;;;1.40;;
9888;SDS011;4983;42.112;24.738;2023-04-03T11:55:59;1.60;;;1.50;;
9888;SDS011;4983;42.112;24.738;2023-04-03T11:58:27;1.40;;;1.30;;
9888;SDS011;4983;42.112;24.738;2023-04-03T12:00:55;1.60;;;1.50;;
9888;SDS011;4983;42.112;24.738;2023-04-03T12:08:57;1.83;;;1.57;;
9888;SDS011;4983;42.112;24.738;2023-04-03T12:11:25;2.00;;;1.80;;
9888;SDS011;4983;42.112;24.738;2023-04-03T12:14:02;2.90;;;2.00;;
9888;SDS011;4983;42.112;24.738;2023-04-03T12:16:30;2.37;;;2.00;;
9888;SDS011;4983;42.112;24.738;2023-04-03T12:19:00;2.00;;;1.80;;
9888;SDS011;4983;42.112;24.738;2023-04-03T12:27:04;2.73;;;2.13;;
9888;SDS011;4983;42.112;24.738;2023-04-03T12:29:36;2.30;;;1.97;;
9888;SDS011;4983;42.112;24.738;2023-04-03T12:32:08;2.27;;;1.90;;
9888;SDS011;4983;42.112;24.738;2023-04-03T12:34:42;2.47;;;2.13;;
9888;SDS011;4983;42.112;24.738;2023-04-03T12:37:20;3.23;;;1.80;;
9888;SDS011;4983;42.112;24.738;2023-04-03T12:39:52;2.87;;;2.07;;
9888;SDS011;4983;42.112;24.738;2023-04-03T12:42:32;2.70;;;2.30;;
9888;SDS011;4983;42.112;24.738;2023-04-03T12:45:02;3.73;;;2.10;;
9888;SDS011;4983;42.112;24.738;2023-04-03T12:47:33;2.50;;;2.27;;
9888;SDS011;4983;42.112;24.738;2023-04-03T12:50:02;2.60;;;2.37;;
9888;SDS011;4983;42.112;24.738;2023-04-03T12:52:32;5.47;;;2.30;;
9888;SDS011;4983;42.112;24.738;2023-04-03T12:54:59;3.40;;;2.20;;
9888;SDS011;4983;42.112;24.738;2023-04-03T12:57:29;2.83;;;2.57;;
9888;SDS011;4983;42.112;24.738;2023-04-03T12:59:59;5.40;;;2.30;;
9888;SDS011;4983;42.112;24.738;2023-04-03T13:02:26;4.20;;;2.67;;
9888;SDS011;4983;42.112;24.738;2023-04-03T13:04:55;3.53;;;2.63;;
9888;SDS011;4983;42.112;24.738;2023-04-03T13:07:25;3.23;;;2.93;;
9888;SDS011;4983;42.112;24.738;2023-04-03T13:09:55;3.30;;;2.80;;
9888;SDS011;4983;42.112;24.738;2023-04-03T13:12:22;3.17;;;2.83;;
9888;SDS011;4983;42.112;24.738;2023-04-03T13:14:52;2.73;;;2.53;;
9888;SDS011;4983;42.112;24.738;2023-04-03T13:17:21;3.90;;;2.40;;
9888;SDS011;4983;42.112;24.738;2023-04-03T13:19:48;2.70;;;2.50;;
9888;SDS011;4983;42.112;24.738;2023-04-03T13:22:21;3.60;;;2.57;;
9888;SDS011;4983;42.112;24.738;2023-04-03T13:24:51;2.57;;;2.37;;
9888;SDS011;4983;42.112;24.738;2023-04-03T13:27:18;3.27;;;2.50;;
9888;SDS011;4983;42.112;24.738;2023-04-03T13:29:48;2.77;;;2.50;;
9888;SDS011;4983;42.112;24.738;2023-04-03T13:32:17;3.20;;;2.80;;
9888;SDS011;4983;42.112;24.738;2023-04-03T13:34:46;3.30;;;3.00;;
9888;SDS011;4983;42.112;24.738;2023-04-03T13:37:20;3.13;;;2.83;;
9888;SDS011;4983;42.112;24.738;2023-04-03T13:39:56;4.53;;;3.07;;
9888;SDS011;4983;42.112;24.738;2023-04-03T13:42:24;3.07;;;2.57;;
9888;SDS011;4983;42.112;24.738;2023-04-03T13:47:37;3.93;;;3.10;;
9888;SDS011;4983;42.112;24.738;2023-04-03T13:50:14;3.10;;;2.80;;
9888;SDS011;4983;42.112;24.738;2023-04-03T13:52:45;3.30;;;2.93;;
9888;SDS011;4983;42.112;24.738;2023-04-03T13:55:17;4.63;;;3.50;;
9888;SDS011;4983;42.112;24.738;2023-04-03T13:57:50;5.00;;;3.60;;
9888;SDS011;4983;42.112;24.738;2023-04-03T14:03:07;4.13;;;3.50;;
9888;SDS011;4983;42.112;24.738;2023-04-03T14:05:40;5.73;;;4.30;;
9888;SDS011;4983;42.112;24.738;2023-04-03T14:08:07;4.43;;;3.90;;
9888;SDS011;4983;42.112;24.738;2023-04-03T14:10:35;5.47;;;3.83;;
9888;SDS011;4983;42.112;24.738;2023-04-03T14:13:02;4.97;;;4.13;;
9888;SDS011;4983;42.112;24.738;2023-04-03T14:15:30;5.30;;;4.20;;
9888;SDS011;4983;42.112;24.738;2023-04-03T14:17:57;17.37;;;11.63;;
9888;SDS011;4983;42.112;24.738;2023-04-03T14:20:25;31.77;;;20.17;;
9888;SDS011;4983;42.112;24.738;2023-04-03T14:22:54;44.87;;;27.50;;
9888;SDS011;4983;42.112;24.738;2023-04-03T14:25:22;27.60;;;16.57;;
9888;SDS011;4983;42.112;24.738;2023-04-03T14:27:51;29.40;;;19.73;;
9888;SDS011;4983;42.112;24.738;2023-04-03T14:30:20;24.70;;;17.47;;
9888;SDS011;4983;42.112;24.738;2023-04-03T14:32:49;6.83;;;5.00;;
9888;SDS011;4983;42.112;24.738;2023-04-03T14:35:16;5.73;;;4.30;;
9888;SDS011;4983;42.112;24.738;2023-04-03T14:37:45;5.93;;;5.10;;
9888;SDS011;4983;42.112;24.738;2023-04-03T14:40:16;5.63;;;5.07;;
9888;SDS011;4983;42.112;24.738;2023-04-03T14:42:44;9.97;;;7.20;;
9888;SDS011;4983;42.112;24.738;2023-04-03T14:45:12;5.80;;;5.00;;
9888;SDS011;4983;42.112;24.738;2023-04-03T14:47:41;5.87;;;4.70;;
9888;SDS011;4983;42.112;24.738;2023-04-03T14:50:10;4.60;;;4.07;;
9888;SDS011;4983;42.112;24.738;2023-04-03T14:52:40;4.90;;;4.07;;
9888;SDS011;4983;42.112;24.738;2023-04-03T14:55:06;5.40;;;3.97;;
9888;SDS011;4983;42.112;24.738;2023-04-03T14:57:35;4.67;;;4.27;;
9888;SDS011;4983;42.112;24.738;2023-04-03T15:00:03;4.40;;;3.80;;
9888;SDS011;4983;42.112;24.738;2023-04-03T15:02:31;5.00;;;4.07;;
9888;SDS011;4983;42.112;24.738;2023-04-03T15:04:58;4.70;;;4.20;;
9888;SDS011;4983;42.112;24.738;2023-04-03T15:07:26;4.10;;;3.70;;
9888;SDS011;4983;42.112;24.738;2023-04-03T15:09:53;4.13;;;3.80;;
9888;SDS011;4983;42.112;24.738;2023-04-03T15:12:21;5.57;;;4.20;;
9888;SDS011;4983;42.112;24.738;2023-04-03T15:14:50;4.57;;;3.90;;
9888;SDS011;4983;42.112;24.738;2023-04-03T15:17:17;5.47;;;3.97;;
9888;SDS011;4983;42.112;24.738;2023-04-03T15:19:46;5.00;;;4.33;;
9888;SDS011;4983;42.112;24.738;2023-04-03T15:22:14;5.60;;;4.57;;
9888;SDS011;4983;42.112;24.738;2023-04-03T15:24:42;6.97;;;4.80;;
9888;SDS011;4983;42.112;24.738;2023-04-03T15:27:10;5.30;;;4.80;;
9888;SDS011;4983;42.112;24.738;2023-04-03T15:29:38;5.70;;;5.10;;
9888;SDS011;4983;42.112;24.738;2023-04-03T15:32:06;4.53;;;4.10;;
9888;SDS011;4983;42.112;24.738;2023-04-03T15:34:34;4.77;;;3.87;;